Time;durP1;ratioP1;P1;durP2;ratioP2;P2;SDS_P1;SDS_P2;PMS_P1;PMS_P2;Temp;Humidity;BMP_temperature;BMP_pressure;BME280_temperature;BME280_humidity;BME280_pressure;Samples;Min_cycle;Max_cycle;Signal;HPM_P1;HPM_P2
2023/10/21 00:00:55;;;;;;;;;;;;;;;12.83;100.00;98364.80;109531;1253;58779;-75
2023/10/21 00:03:22;;;;;;;;;;;;;;;12.85;100.00;98354.52;109477;1252;58725;-75
2023/10/21 00:05:49;;;;;;;;;;;;;;;12.87;100.00;98351.23;106624;1252;73165;-75
2023/10/21 00:08:16;;;;;;;;;;;;;;;12.89;100.00;98358.28;108705;1253;70206;-73
2023/10/21 00:10:43;;;;;;;;;;;;;;;12.91;100.00;98359.97;109524;1252;71165;-74
2023/10/21 00:13:10;;;;;;;;;;;;;;;12.92;100.00;98367.77;109536;1252;60726;-73
2023/10/21 00:15:37;;;;;;;;;;;;;;;12.94;100.00;98361.84;109503;1253;59320;-73
2023/10/21 00:18:03;;;;;;;;;;;;;;;12.96;100.00;98367.89;107804;1252;61144;-76
2023/10/21 00:20:30;;;;;;;;;;;;;;;12.98;100.00;98364.07;106131;1254;70819;-74
2023/10/21 00:22:57;;;;;;;;;;;;;;;13.00;100.00;98359.36;106015;1254;61272;-74
2023/10/21 00:25:23;;;;;;;;;;;;;;;13.03;100.00;98359.90;106045;1252;61356;-74
2023/10/21 00:27:50;;;;;;;;;;;;;;;13.03;100.00;98360.97;106547;1257;61243;-74
2023/10/21 00:30:17;;;;;;;;;;;;;;;13.03;100.00;98359.76;106069;1256;61295;-75
2023/10/21 00:32:43;;;;;;;;;;;;;;;13.02;100.00;98353.98;106009;1254;70984;-75
2023/10/21 00:35:10;;;;;;;;;;;;;;;13.02;100.00;98350.09;106447;1253;70211;-75
2023/10/21 00:37:37;;;;;;;;;;;;;;;13.02;100.00;98343.77;105876;1253;62837;-75
2023/10/21 00:40:06;;;;;;;;;;;;;;;13.01;100.00;98335.52;106055;1254;61269;-74
2023/10/21 00:42:33;;;;;;;;;;;;;;;13.00;100.00;98333.66;106391;1254;73265;-76
2023/10/21 00:45:03;;;;;;;;;;;;;;;13.00;100.00;98340.16;106042;1256;61234;-75
2023/10/21 00:47:32;;;;;;;;;;;;;;;12.98;100.00;98351.36;105989;1254;72769;-75
2023/10/21 00:50:00;;;;;;;;;;;;;;;12.97;100.00;98351.95;106081;1256;61261;-75
2023/10/21 00:52:27;;;;;;;;;;;;;;;12.95;100.00;98351.75;106033;1254;61248;-75
2023/10/21 00:54:54;;;;;;;;;;;;;;;12.93;100.00;98352.21;106019;1252;61183;-75
2023/10/21 00:57:20;;;;;;;;;;;;;;;12.93;100.00;98349.27;106025;1256;69732;-74
2023/10/21 00:59:47;;;;;;;;;;;;;;;12.93;100.00;98350.11;106016;1253;72458;-75
2023/10/21 01:02:14;;;;;;;;;;;;;;;12.94;100.00;98345.50;106014;1256;61305;-75
2023/10/21 01:04:40;;;;;;;;;;;;;;;12.94;100.00;98352.33;106024;1253;61237;-76
2023/10/21 01:07:17;;;;;;;;;;;;;;;12.93;100.00;98355.04;106020;1254;74702;-75
2023/10/21 01:09:43;;;;;;;;;;;;;;;12.93;100.00;98355.95;106144;1253;70945;-75
2023/10/21 01:12:10;;;;;;;;;;;;;;;12.92;100.00;98348.41;105899;1258;70600;-75
2023/10/21 01:14:36;;;;;;;;;;;;;;;12.92;100.00;98349.81;106082;1253;61285;-74
2023/10/21 01:17:03;;;;;;;;;;;;;;;12.93;100.00;98355.23;106115;1254;61404;-75
2023/10/21 01:19:30;;;;;;;;;;;;;;;12.93;100.00;98373.36;106050;1256;74654;-75
2023/10/21 01:21:57;;;;;;;;;;;;;;;12.93;100.00;98373.39;106118;1253;69756;-75
2023/10/21 01:24:23;;;;;;;;;;;;;;;12.93;100.00;98373.05;106049;1254;61354;-74
2023/10/21 01:26:50;;;;;;;;;;;;;;;12.93;100.00;98384.94;105993;1253;61774;-73
2023/10/21 01:29:17;;;;;;;;;;;;;;;12.95;100.00;98380.10;106040;1256;61291;-75
2023/10/21 01:31:44;;;;;;;;;;;;;;;12.95;100.00;98383.44;106267;1253;74719;-75
2023/10/21 01:34:11;;;;;;;;;;;;;;;12.95;100.00;98385.00;106052;1253;61264;-76
2023/10/21 01:36:37;;;;;;;;;;;;;;;12.96;100.00;98382.50;105945;1254;72726;-76
2023/10/21 01:39:05;;;;;;;;;;;;;;;12.97;100.00;98379.13;106046;1254;61880;-75
2023/10/21 01:41:32;;;;;;;;;;;;;;;12.96;100.00;98385.64;106085;1256;61337;-74
2023/10/21 01:43:58;;;;;;;;;;;;;;;12.97;100.00;98389.86;106034;1252;72889;-75
2023/10/21 01:46:26;;;;;;;;;;;;;;;12.96;100.00;98388.30;106077;1252;61196;-75
2023/10/21 01:48:53;;;;;;;;;;;;;;;12.96;100.00;98392.85;106096;1253;72706;-75
2023/10/21 01:51:19;;;;;;;;;;;;;;;12.96;100.00;98393.44;106077;1253;61708;-75
2023/10/21 01:53:46;;;;;;;;;;;;;;;12.95;100.00;98390.98;106079;1254;61326;-75
2023/10/21 01:56:12;;;;;;;;;;;;;;;12.94;100.00;98391.94;106012;1253;61291;-76
2023/10/21 01:58:39;;;;;;;;;;;;;;;12.93;100.00;98391.14;106054;1253;61375;-75
2023/10/21 02:01:11;;;;;;;;;;;;;;;12.93;100.00;98389.24;106013;1257;72765;-74
2023/10/21 02:03:38;;;;;;;;;;;;;;;12.93;100.00;98397.69;106468;1254;62221;-75
2023/10/21 02:06:06;;;;;;;;;;;;;;;12.92;100.00;98398.93;106114;1257;61126;-75
2023/10/21 02:08:33;;;;;;;;;;;;;;;12.93;100.00;98395.58;106051;1255;75040;-74
2023/10/21 02:11:00;;;;;;;;;;;;;;;12.94;100.00;98395.68;106572;1252;70590;-75
2023/10/21 02:13:26;;;;;;;;;;;;;;;12.93;100.00;98397.27;106063;1253;72399;-74
2023/10/21 02:15:53;;;;;;;;;;;;;;;12.93;100.00;98393.46;105765;1253;61750;-76
2023/10/21 02:18:20;;;;;;;;;;;;;;;12.92;100.00;98402.27;106045;1256;61283;-76
2023/10/21 02:20:47;;;;;;;;;;;;;;;12.92;100.00;98400.73;106293;1256;73545;-75
2023/10/21 02:23:14;;;;;;;;;;;;;;;12.92;100.00;98396.83;106135;1253;70244;-75
2023/10/21 02:25:42;;;;;;;;;;;;;;;12.92;100.00;98402.30;106515;1253;72912;-74
2023/10/21 02:28:10;;;;;;;;;;;;;;;12.92;100.00;98405.66;106024;1253;61317;-75
2023/10/21 02:30:36;;;;;;;;;;;;;;;12.91;100.00;98404.11;106629;1256;61283;-75
2023/10/21 02:33:03;;;;;;;;;;;;;;;12.91;100.00;98397.95;106055;1253;61295;-75
2023/10/21 02:35:32;;;;;;;;;;;;;;;12.91;100.00;98397.27;106078;1256;69269;-76
2023/10/21 02:37:58;;;;;;;;;;;;;;;12.90;100.00;98411.54;106022;1253;71164;-75
2023/10/21 02:40:25;;;;;;;;;;;;;;;12.90;100.00;98418.46;106116;1252;61177;-75
2023/10/21 02:42:52;;;;;;;;;;;;;;;12.89;100.00;98421.48;106040;1253;61366;-75
2023/10/21 02:45:19;;;;;;;;;;;;;;;12.88;100.00;98428.57;106022;1253;74443;-75
2023/10/21 02:47:45;;;;;;;;;;;;;;;12.87;100.00;98434.66;106043;1253;61334;-75
2023/10/21 02:50:12;;;;;;;;;;;;;;;12.85;100.00;98428.60;106014;1256;72849;-75
2023/10/21 02:52:38;;;;;;;;;;;;;;;12.85;100.00;98422.79;106074;1256;61366;-75
2023/10/21 02:55:06;;;;;;;;;;;;;;;12.85;100.00;98416.27;106041;1253;61266;-74
2023/10/21 02:57:32;;;;;;;;;;;;;;;12.84;100.00;98426.70;106033;1253;74405;-75
2023/10/21 02:59:59;;;;;;;;;;;;;;;12.84;100.00;98429.36;106056;1257;70743;-75
2023/10/21 03:02:26;;;;;;;;;;;;;;;12.83;100.00;98434.70;106008;1254;72510;-75
2023/10/21 03:04:53;;;;;;;;;;;;;;;12.83;100.00;98439.98;105995;1253;61778;-77
2023/10/21 03:07:20;;;;;;;;;;;;;;;12.82;100.00;98445.46;106468;1254;60159;-75
2023/10/21 03:09:46;;;;;;;;;;;;;;;12.83;100.00;98445.79;106062;1253;61289;-75
2023/10/21 03:12:12;;;;;;;;;;;;;;;12.83;100.00;98440.48;106096;1257;61369;-75
2023/10/21 03:14:39;;;;;;;;;;;;;;;12.83;100.00;98452.96;106088;1253;61231;-76
2023/10/21 03:17:06;;;;;;;;;;;;;;;12.83;100.00;98455.12;105952;1254;61334;-75
2023/10/21 03:19:32;;;;;;;;;;;;;;;12.83;100.00;98463.23;105970;1256;61385;-75
2023/10/21 03:21:59;;;;;;;;;;;;;;;12.81;100.00;98467.00;106057;1252;73667;-75
2023/10/21 03:24:26;;;;;;;;;;;;;;;12.82;100.00;98469.95;106049;1253;70852;-74
2023/10/21 03:26:52;;;;;;;;;;;;;;;12.82;100.00;98471.17;105998;1253;61250;-74
2023/10/21 03:29:20;;;;;;;;;;;;;;;12.83;100.00;98467.09;106614;1252;61815;-74
2023/10/21 03:31:47;;;;;;;;;;;;;;;12.83;100.00;98474.11;106078;1257;59919;-74
2023/10/21 03:34:13;;;;;;;;;;;;;;;12.84;100.00;98484.98;105942;1253;73480;-76
2023/10/21 03:36:40;;;;;;;;;;;;;;;12.85;100.00;98483.86;106128;1253;70899;-74
2023/10/21 03:39:07;;;;;;;;;;;;;;;12.86;100.00;98482.23;106098;1253;73185;-75
2023/10/21 03:41:33;;;;;;;;;;;;;;;12.87;100.00;98483.40;106001;1256;61369;-76
2023/10/21 03:44:00;;;;;;;;;;;;;;;12.85;100.00;98485.25;106051;1253;61217;-75
2023/10/21 03:46:27;;;;;;;;;;;;;;;12.84;100.00;98491.83;106091;1257;74931;-75
2023/10/21 03:48:53;;;;;;;;;;;;;;;12.84;100.00;98491.50;106006;1253;70862;-75
2023/10/21 03:51:21;;;;;;;;;;;;;;;12.83;100.00;98489.45;106091;1257;72501;-75
2023/10/21 03:53:48;;;;;;;;;;;;;;;12.82;100.00;98491.91;106075;1253;61966;-75
2023/10/21 03:56:15;;;;;;;;;;;;;;;12.82;100.00;98492.27;105999;1256;61154;-76
2023/10/21 03:58:41;;;;;;;;;;;;;;;12.83;100.00;98492.27;106081;1253;73461;-75
2023/10/21 04:01:08;;;;;;;;;;;;;;;12.82;100.00;98489.47;106090;1253;61205;-75
2023/10/21 04:03:35;;;;;;;;;;;;;;;12.82;100.00;98496.30;106083;1257;72658;-75
2023/10/21 04:06:02;;;;;;;;;;;;;;;12.83;100.00;98497.86;106022;1253;61309;-75
2023/10/21 04:08:29;;;;;;;;;;;;;;;12.83;100.00;98498.03;106066;1257;61254;-75
2023/10/21 04:10:56;;;;;;;;;;;;;;;12.84;100.00;98491.67;106029;1257;73196;-75
2023/10/21 04:13:22;;;;;;;;;;;;;;;12.83;100.00;98495.96;106044;1252;71374;-75
2023/10/21 04:15:51;;;;;;;;;;;;;;;12.81;100.00;98497.79;106036;1253;61274;-74
2023/10/21 04:18:18;;;;;;;;;;;;;;;12.80;100.00;98497.55;105991;1253;61355;-75
2023/10/21 04:20:45;;;;;;;;;;;;;;;12.79;100.00;98496.57;106097;1256;61260;-76
2023/10/21 04:23:12;;;;;;;;;;;;;;;12.77;100.00;98495.94;106281;1252;75159;-75
2023/10/21 04:25:39;;;;;;;;;;;;;;;12.76;100.00;98496.73;106032;1253;71144;-75
2023/10/21 04:28:06;;;;;;;;;;;;;;;12.74;100.00;98499.52;106068;1255;72494;-76
2023/10/21 04:30:32;;;;;;;;;;;;;;;12.71;100.00;98499.46;105951;1253;62046;-75
2023/10/21 04:32:59;;;;;;;;;;;;;;;12.69;100.00;98498.36;106047;1252;61372;-75
2023/10/21 04:35:26;;;;;;;;;;;;;;;12.67;100.00;98498.67;106078;1252;74725;-75
2023/10/21 04:37:53;;;;;;;;;;;;;;;12.65;100.00;98503.67;106056;1256;69466;-76
2023/10/21 04:40:19;;;;;;;;;;;;;;;12.63;100.00;98508.22;105962;1254;72773;-74
2023/10/21 04:42:46;;;;;;;;;;;;;;;12.60;100.00;98516.46;105985;1258;61366;-75
2023/10/21 04:45:13;;;;;;;;;;;;;;;12.58;100.00;98514.64;106126;1253;61248;-75
2023/10/21 04:47:40;;;;;;;;;;;;;;;12.58;100.00;98528.20;105926;1254;73146;-74
2023/10/21 04:50:07;;;;;;;;;;;;;;;12.58;100.00;98537.36;106414;1253;70577;-74
2023/10/21 04:52:35;;;;;;;;;;;;;;;12.57;100.00;98544.13;106015;1253;71759;-75
2023/10/21 04:55:02;;;;;;;;;;;;;;;12.54;100.00;98549.02;106048;1256;61209;-75
2023/10/21 04:57:29;;;;;;;;;;;;;;;12.52;100.00;98551.96;106062;1257;61158;-75
2023/10/21 04:59:56;;;;;;;;;;;;;;;12.50;100.00;98554.02;106149;1256;75127;-75
2023/10/21 05:02:23;;;;;;;;;;;;;;;12.48;100.00;98558.02;105988;1253;70941;-75
2023/10/21 05:04:50;;;;;;;;;;;;;;;12.45;100.00;98558.52;106073;1253;61358;-76
2023/10/21 05:07:17;;;;;;;;;;;;;;;12.43;100.00;98565.99;106130;1253;62402;-75
2023/10/21 05:09:44;;;;;;;;;;;;;;;12.41;100.00;98573.02;106064;1256;61178;-75
2023/10/21 05:12:10;;;;;;;;;;;;;;;12.38;100.00;98580.35;106063;1255;61227;-75
2023/10/21 05:14:37;;;;;;;;;;;;;;;12.37;100.00;98585.89;106043;1253;71118;-76
2023/10/21 05:17:05;;;;;;;;;;;;;;;12.36;100.00;98591.02;106047;1256;73050;-76
2023/10/21 05:19:32;;;;;;;;;;;;;;;12.35;100.00;98592.19;106285;1255;61597;-75
2023/10/21 05:21:59;;;;;;;;;;;;;;;12.33;100.00;98599.67;106058;1257;61203;-76
2023/10/21 05:24:26;;;;;;;;;;;;;;;12.30;100.00;98602.48;106063;1253;73147;-76
2023/10/21 05:26:52;;;;;;;;;;;;;;;12.27;100.00;98612.98;106070;1255;71178;-75
2023/10/21 05:29:19;;;;;;;;;;;;;;;12.24;100.00;98619.13;105972;1254;72548;-75
2023/10/21 05:31:46;;;;;;;;;;;;;;;12.22;100.00;98624.38;106018;1253;61177;-75
2023/10/21 05:34:17;;;;;;;;;;;;;;;12.20;100.00;98624.44;106029;1253;61360;-75
2023/10/21 05:36:45;;;;;;;;;;;;;;;12.17;100.00;98624.06;105924;1258;74698;-74
2023/10/21 05:39:12;;;;;;;;;;;;;;;12.15;100.00;98628.64;106427;1252;69583;-75
2023/10/21 05:41:39;;;;;;;;;;;;;;;12.11;100.00;98634.29;106012;1259;72407;-74
2023/10/21 05:44:07;;;;;;;;;;;;;;;12.06;100.00;98636.30;106466;1254;62024;-76
2023/10/21 05:46:33;;;;;;;;;;;;;;;12.03;100.00;98648.97;106445;1253;61350;-75
2023/10/21 05:49:02;;;;;;;;;;;;;;;12.00;100.00;98654.59;106064;1256;73578;-75
2023/10/21 05:51:29;;;;;;;;;;;;;;;11.96;100.00;98662.15;106570;1253;71471;-76
2023/10/21 05:53:56;;;;;;;;;;;;;;;11.93;100.00;98660.56;106021;1253;72500;-75
2023/10/21 05:56:23;;;;;;;;;;;;;;;11.92;100.00;98666.06;106022;1252;61379;-74
2023/10/21 05:58:50;;;;;;;;;;;;;;;11.91;100.00;98670.13;106030;1252;61349;-75
2023/10/21 06:01:17;;;;;;;;;;;;;;;11.93;100.00;98677.48;106052;1253;74529;-74
2023/10/21 06:03:44;;;;;;;;;;;;;;;11.93;100.00;98678.67;105999;1253;70825;-75
2023/10/21 06:06:11;;;;;;;;;;;;;;;11.92;100.00;98677.83;106532;1253;72684;-74
2023/10/21 06:08:38;;;;;;;;;;;;;;;11.91;100.00;98680.34;106017;1257;61148;-75
2023/10/21 06:11:05;;;;;;;;;;;;;;;11.88;100.00;98691.16;106638;1253;61349;-75
2023/10/21 06:13:32;;;;;;;;;;;;;;;11.87;100.00;98697.41;106007;1257;61264;-75
2023/10/21 06:15:59;;;;;;;;;;;;;;;11.83;100.00;98697.92;106044;1256;69638;-75
2023/10/21 06:18:25;;;;;;;;;;;;;;;11.82;100.00;98699.41;106002;1253;72470;-75
2023/10/21 06:20:53;;;;;;;;;;;;;;;11.80;100.00;98701.63;106018;1258;62319;-75
2023/10/21 06:23:21;;;;;;;;;;;;;;;11.78;100.00;98701.73;106283;1253;61148;-75
2023/10/21 06:25:48;;;;;;;;;;;;;;;11.76;100.00;98711.86;106011;1253;73220;-75
2023/10/21 06:28:15;;;;;;;;;;;;;;;11.75;100.00;98717.54;106437;1253;71132;-74
2023/10/21 06:30:42;;;;;;;;;;;;;;;11.75;100.00;98719.67;105994;1254;72428;-75
2023/10/21 06:33:11;;;;;;;;;;;;;;;11.75;100.00;98725.80;106065;1253;62004;-74
2023/10/21 06:35:38;;;;;;;;;;;;;;;11.71;100.00;98726.36;106070;1255;61343;-75
2023/10/21 06:38:05;;;;;;;;;;;;;;;11.67;100.00;98725.33;106031;1256;74706;-76
2023/10/21 06:40:32;;;;;;;;;;;;;;;11.64;100.00;98731.61;106550;1253;71500;-75
2023/10/21 06:43:18;;;;;;;;;;;;;;;11.60;100.00;98737.61;106595;1253;72480;-76
2023/10/21 06:45:45;;;;;;;;;;;;;;;11.58;100.00;98737.73;106005;1253;62111;-75
2023/10/21 06:48:12;;;;;;;;;;;;;;;11.59;100.00;98737.55;106090;1256;61360;-75
2023/10/21 06:50:38;;;;;;;;;;;;;;;11.59;100.00;98742.80;106011;1253;74579;-74
2023/10/21 06:53:05;;;;;;;;;;;;;;;11.59;100.00;98747.54;106057;1253;61283;-76
2023/10/21 06:55:40;;;;;;;;;;;;;;;11.59;100.00;98752.45;106193;1253;73276;-75
2023/10/21 06:58:07;;;;;;;;;;;;;;;11.56;100.00;98753.81;106429;1253;61234;-75
2023/10/21 07:00:33;;;;;;;;;;;;;;;11.51;100.00;98751.92;106049;1255;61240;-76
2023/10/21 07:03:01;;;;;;;;;;;;;;;11.46;100.00;98754.31;106044;1253;74643;-74
2023/10/21 07:05:33;;;;;;;;;;;;;;;11.42;100.00;98761.17;106342;1255;69805;-74
2023/10/21 07:07:59;;;;;;;;;;;;;;;11.40;100.00;98758.33;106000;1253;72717;-74
2023/10/21 07:10:30;;;;;;;;;;;;;;;11.38;100.00;98756.64;106528;1253;62134;-75
2023/10/21 07:13:00;;;;;;;;;;;;;;;11.38;100.00;98751.73;106048;1253;61158;-75
2023/10/21 07:15:33;;;;;;;;;;;;;;;11.36;100.00;98754.61;106587;1253;74670;-76
2023/10/21 07:17:59;;;;;;;;;;;;;;;11.37;100.00;98761.95;105939;1253;71615;-75
2023/10/21 07:20:26;;;;;;;;;;;;;;;11.40;100.00;98762.67;106043;1253;72383;-75
2023/10/21 07:22:53;;;;;;;;;;;;;;;11.43;100.00;98761.69;106475;1253;61273;-76
2023/10/21 07:25:24;;;;;;;;;;;;;;;11.44;100.00;98767.77;106217;1253;61237;-75
2023/10/21 07:27:51;;;;;;;;;;;;;;;11.45;100.00;98776.99;106624;1255;74703;-75
2023/10/21 07:30:18;;;;;;;;;;;;;;;11.44;100.00;98783.05;106096;1253;69893;-74
2023/10/21 07:32:45;;;;;;;;;;;;;;;11.44;100.00;98788.83;106087;1255;73103;-76
2023/10/21 07:35:11;;;;;;;;;;;;;;;11.44;100.00;98800.77;106088;1253;61231;-75
2023/10/21 07:37:38;;;;;;;;;;;;;;;11.45;100.00;98811.59;106088;1257;61267;-76
2023/10/21 07:40:06;;;;;;;;;;;;;;;11.46;100.00;98810.34;106029;1255;61240;-75
2023/10/21 07:42:32;;;;;;;;;;;;;;;11.44;100.00;98809.55;106582;1255;69526;-75
2023/10/21 07:44:59;;;;;;;;;;;;;;;11.42;100.00;98810.88;106137;1253;71448;-75
2023/10/21 07:47:27;;;;;;;;;;;;;;;11.41;100.00;98810.91;106087;1253;62416;-76
2023/10/21 07:49:54;;;;;;;;;;;;;;;11.41;100.00;98808.67;106614;1255;61334;-75
2023/10/21 07:52:22;;;;;;;;;;;;;;;11.39;100.00;98810.48;106288;1253;73136;-76
2023/10/21 07:54:49;;;;;;;;;;;;;;;11.38;100.00;98816.54;105995;1253;71069;-76
2023/10/21 07:57:15;;;;;;;;;;;;;;;11.36;100.00;98828.91;106437;1253;72479;-76
2023/10/21 07:59:42;;;;;;;;;;;;;;;11.34;100.00;98837.77;106044;1253;61372;-76
2023/10/21 08:02:08;;;;;;;;;;;;;;;11.32;100.00;98841.19;106010;1253;61234;-76
2023/10/21 08:04:35;;;;;;;;;;;;;;;11.31;100.00;98852.16;106220;1253;73666;-75
2023/10/21 08:07:02;;;;;;;;;;;;;;;11.28;100.00;98854.39;106042;1253;71070;-75
2023/10/21 08:09:29;;;;;;;;;;;;;;;11.25;100.00;98860.89;106035;1253;72907;-76
2023/10/21 08:11:56;;;;;;;;;;;;;;;11.21;100.00;98877.26;106065;1253;61952;-75
2023/10/21 08:14:22;;;;;;;;;;;;;;;11.17;100.00;98887.75;106055;1258;61356;-75
2023/10/21 08:16:49;;;;;;;;;;;;;;;11.16;100.00;98888.16;106056;1253;74671;-75
2023/10/21 08:19:16;;;;;;;;;;;;;;;11.14;100.00;98885.41;105704;1253;1003379;-74
2023/10/21 08:21:43;;;;;;;;;;;;;;;11.15;100.00;98885.05;106153;1257;71526;-75
2023/10/21 08:24:09;;;;;;;;;;;;;;;11.14;100.00;98885.75;106067;1253;62034;-76
2023/10/21 08:26:36;;;;;;;;;;;;;;;11.15;100.00;98879.77;106056;1258;61232;-75
2023/10/21 08:29:03;;;;;;;;;;;;;;;11.15;100.00;98882.73;106114;1253;74356;-75
2023/10/21 08:31:29;;;;;;;;;;;;;;;11.14;100.00;98882.44;106001;1253;71125;-75
2023/10/21 08:33:56;;;;;;;;;;;;;;;11.11;100.00;98878.02;106000;1257;72411;-74
2023/10/21 08:36:22;;;;;;;;;;;;;;;11.10;100.00;98884.92;106016;1253;61356;-75
2023/10/21 08:38:53;;;;;;;;;;;;;;;11.10;100.00;98884.39;105987;1256;61286;-75
2023/10/21 08:41:21;;;;;;;;;;;;;;;11.11;100.00;98887.86;106314;1253;74588;-75
2023/10/21 08:43:48;;;;;;;;;;;;;;;11.12;100.00;98890.42;106016;1253;71591;-75
2023/10/21 08:46:15;;;;;;;;;;;;;;;11.12;100.00;98892.15;106096;1253;70619;-74
2023/10/21 08:48:43;;;;;;;;;;;;;;;11.14;100.00;98893.66;106511;1257;61706;-75
2023/10/21 08:51:10;;;;;;;;;;;;;;;11.13;100.00;98898.96;106001;1253;61186;-75
2023/10/21 08:53:38;;;;;;;;;;;;;;;11.12;100.00;98904.66;106067;1257;74712;-75
2023/10/21 08:56:04;;;;;;;;;;;;;;;11.11;100.00;98900.84;106353;1253;69589;-75
2023/10/21 08:58:31;;;;;;;;;;;;;;;11.14;100.00;98904.38;106553;1255;72703;-76
2023/10/21 09:00:59;;;;;;;;;;;;;;;11.15;100.00;98901.14;106018;1256;61350;-74
2023/10/21 09:03:26;;;;;;;;;;;;;;;11.18;100.00;98905.81;105882;1256;61115;-76
2023/10/21 09:06:03;;;;;;;;;;;;;;;11.21;100.00;98905.65;105999;1255;74518;-75
2023/10/21 09:08:34;;;;;;;;;;;;;;;11.24;100.00;98915.67;106058;1256;71081;-75
2023/10/21 09:11:02;;;;;;;;;;;;;;;11.28;100.00;98927.11;106481;1257;72591;-75
2023/10/21 09:13:30;;;;;;;;;;;;;;;11.25;100.00;98928.63;106070;1253;61916;-75
2023/10/21 09:15:57;;;;;;;;;;;;;;;11.21;100.00;98930.75;106033;1255;61336;-74
2023/10/21 09:18:24;;;;;;;;;;;;;;;11.16;100.00;98925.55;106584;1255;74422;-75
2023/10/21 09:20:51;;;;;;;;;;;;;;;11.11;100.00;98930.00;106039;1253;61266;-75
2023/10/21 09:23:18;;;;;;;;;;;;;;;11.07;100.00;98936.30;105995;1252;72418;-75
2023/10/21 09:25:51;;;;;;;;;;;;;;;11.05;100.00;98939.73;106140;1253;61270;-76
2023/10/21 09:28:19;;;;;;;;;;;;;;;11.04;100.00;98937.86;106017;1254;61294;-76
2023/10/21 09:30:54;;;;;;;;;;;;;;;11.06;100.00;98934.06;106685;1256;73753;-76
2023/10/21 09:33:21;;;;;;;;;;;;;;;11.07;100.00;98933.65;106055;1256;69678;-75
2023/10/21 09:35:59;;;;;;;;;;;;;;;11.07;100.00;98935.94;106014;1253;72530;-76
2023/10/21 09:38:40;;;;;;;;;;;;;;;11.04;100.00;98931.17;105985;1253;61940;-75
2023/10/21 09:41:10;;;;;;;;;;;;;;;11.02;100.00;98926.52;106412;1255;61251;-75
2023/10/21 09:43:37;;;;;;;;;;;;;;;11.00;100.00;98924.33;106081;1254;74644;-76
2023/10/21 09:46:05;;;;;;;;;;;;;;;10.99;100.00;98929.49;106413;1257;69763;-75
2023/10/21 09:48:36;;;;;;;;;;;;;;;11.00;100.00;98931.20;106065;1253;72696;-75
2023/10/21 09:51:04;;;;;;;;;;;;;;;11.00;100.00;98933.84;106053;1254;61645;-75
2023/10/21 09:53:33;;;;;;;;;;;;;;;10.96;100.00;98935.05;106013;1252;61394;-74
2023/10/21 09:55:59;;;;;;;;;;;;;;;10.93;100.00;98947.98;106116;1256;75151;-76
2023/10/21 09:58:27;;;;;;;;;;;;;;;10.92;100.00;98951.02;106060;1253;71233;-74
2023/10/21 10:00:54;;;;;;;;;;;;;;;10.93;100.00;98947.30;105903;1258;73180;-74
2023/10/21 10:03:20;;;;;;;;;;;;;;;10.96;100.00;98954.19;106010;1252;62149;-75
2023/10/21 10:05:50;;;;;;;;;;;;;;;10.98;100.00;98962.33;106025;1256;61251;-75
2023/10/21 10:08:16;;;;;;;;;;;;;;;10.97;100.00;98967.80;106021;1253;75139;-75
2023/10/21 10:10:43;;;;;;;;;;;;;;;10.97;100.00;98971.66;106036;1253;61278;-75
2023/10/21 10:13:12;;;;;;;;;;;;;;;10.94;100.00;98976.19;106134;1257;72555;-74
2023/10/21 10:15:40;;;;;;;;;;;;;;;10.89;100.00;98982.40;106033;1257;61382;-75
2023/10/21 10:18:08;;;;;;;;;;;;;;;10.85;100.00;98990.98;106126;1254;61173;-74
2023/10/21 10:20:43;;;;;;;;;;;;;;;10.80;100.00;98993.31;106447;1257;74626;-76
2023/10/21 10:23:10;;;;;;;;;;;;;;;10.74;100.00;99001.80;106080;1253;71072;-74
2023/10/21 10:25:38;;;;;;;;;;;;;;;10.73;100.00;99006.79;106064;1253;72614;-76
2023/10/21 10:28:07;;;;;;;;;;;;;;;10.71;100.00;99005.98;106079;1253;61260;-74
2023/10/21 10:30:34;;;;;;;;;;;;;;;10.70;100.00;99019.35;105881;1258;61375;-75
2023/10/21 10:33:02;;;;;;;;;;;;;;;10.68;100.00;99026.27;106016;1253;74422;-74
2023/10/21 10:35:34;;;;;;;;;;;;;;;10.65;100.00;99027.11;106066;1257;70822;-74
2023/10/21 10:38:01;;;;;;;;;;;;;;;10.60;100.00;99024.16;105677;1253;519968;-75
2023/10/21 10:40:33;;;;;;;;;;;;;;;10.58;100.00;99028.45;106096;1253;61770;-75
2023/10/21 10:43:00;;;;;;;;;;;;;;;10.57;100.00;99032.34;106444;1255;61270;-75
2023/10/21 10:45:26;;;;;;;;;;;;;;;10.56;100.00;99039.77;106043;1256;74577;-75
2023/10/21 10:48:00;;;;;;;;;;;;;;;10.55;100.00;99042.45;106069;1257;71074;-76
2023/10/21 10:50:28;;;;;;;;;;;;;;;10.53;100.00;99038.67;106454;1253;71048;-74
2023/10/21 10:52:55;;;;;;;;;;;;;;;10.51;100.00;99030.00;106037;1256;62221;-75
2023/10/21 10:55:22;;;;;;;;;;;;;;;10.50;100.00;99028.45;106053;1252;61289;-75
2023/10/21 10:57:49;;;;;;;;;;;;;;;10.46;100.00;99030.73;106093;1256;61346;-76
2023/10/21 11:00:20;;;;;;;;;;;;;;;10.41;100.00;99037.59;106065;1256;70025;-76
2023/10/21 11:02:48;;;;;;;;;;;;;;;10.37;100.00;99042.31;106010;1259;73080;-75
2023/10/21 11:05:22;;;;;;;;;;;;;;;10.36;100.00;99043.23;106388;1254;61270;-76
2023/10/21 11:07:55;;;;;;;;;;;;;;;10.35;100.00;99038.86;106031;1256;61249;-75
2023/10/21 11:10:22;;;;;;;;;;;;;;;10.35;100.00;99037.65;106022;1253;74633;-75
2023/10/21 11:12:48;;;;;;;;;;;;;;;10.34;100.00;99038.42;106685;1256;70871;-75
2023/10/21 11:15:16;;;;;;;;;;;;;;;10.30;100.00;99046.94;106045;1254;61692;-74
2023/10/21 11:17:46;;;;;;;;;;;;;;;10.27;100.00;99063.88;106066;1259;61803;-75
2023/10/21 11:20:14;;;;;;;;;;;;;;;10.23;100.00;99066.70;106058;1254;61350;-75
2023/10/21 11:22:41;;;;;;;;;;;;;;;10.20;100.00;99074.00;106175;1254;74638;-75
2023/10/21 11:25:08;;;;;;;;;;;;;;;10.19;100.00;99080.02;106042;1258;70881;-75
2023/10/21 11:27:35;;;;;;;;;;;;;;;10.16;100.00;99082.73;105991;1253;71433;-75
2023/10/21 11:30:07;;;;;;;;;;;;;;;10.13;100.00;99086.05;106038;1257;61266;-74
2023/10/21 11:32:35;;;;;;;;;;;;;;;10.09;100.00;99086.35;106009;1257;61263;-76
2023/10/21 11:35:11;;;;;;;;;;;;;;;10.08;100.00;99087.64;106478;1256;73610;-75
2023/10/21 11:37:38;;;;;;;;;;;;;;;10.05;100.00;99095.95;106024;1257;71004;-74
2023/10/21 11:40:05;;;;;;;;;;;;;;;10.03;100.00;99108.30;106046;1253;72519;-74
2023/10/21 11:42:32;;;;;;;;;;;;;;;10.00;100.00;99108.80;106068;1254;61353;-76
2023/10/21 11:45:03;;;;;;;;;;;;;;;9.97;100.00;99114.83;106064;1253;61281;-75
2023/10/21 11:47:33;;;;;;;;;;;;;;;9.97;100.00;99118.70;106362;1254;74784;-74
2023/10/21 11:49:59;;;;;;;;;;;;;;;9.97;100.00;99123.96;106040;1255;69836;-75
2023/10/21 11:52:26;;;;;;;;;;;;;;;9.96;100.00;99127.14;105969;1253;72533;-76
2023/10/21 11:57:53;;;;;;;;;;;;;;;9.94;100.00;99132.65;106113;1252;61244;-75
2023/10/21 12:33:52;;;;;;;;;;;;;;;9.65;100.00;99155.59;105898;1257;72585;-78
2023/10/21 12:36:33;;;;;;;;;;;;;;;9.63;100.00;99164.98;106617;1253;61798;-78
2023/10/21 12:41:52;;;;;;;;;;;;;;;9.61;100.00;99178.38;105814;1253;72771;-76
2023/10/21 12:44:23;;;;;;;;;;;;;;;9.59;100.00;99186.52;106623;1253;69933;-76
2023/10/21 12:47:05;;;;;;;;;;;;;;;9.58;100.00;99188.11;106285;1257;72549;-75
2023/10/21 12:49:33;;;;;;;;;;;;;;;9.56;100.00;99192.02;106579;1254;62207;-76
2023/10/21 12:52:04;;;;;;;;;;;;;;;9.55;100.00;99193.30;106360;1255;61250;-76
2023/10/21 12:54:31;;;;;;;;;;;;;;;9.53;100.00;99191.80;106717;1253;74164;-75
2023/10/21 12:56:58;;;;;;;;;;;;;;;9.51;100.00;99180.65;105992;1255;70050;-75
2023/10/21 12:59:24;;;;;;;;;;;;;;;9.48;100.00;99184.94;106008;1259;61356;-74
2023/10/21 13:01:53;;;;;;;;;;;;;;;9.47;100.00;99185.00;106076;1253;61818;-75
2023/10/21 13:04:20;;;;;;;;;;;;;;;9.45;100.00;99191.20;106076;1257;61353;-75
2023/10/21 13:06:47;;;;;;;;;;;;;;;9.43;100.00;99193.17;106173;1257;74443;-75
2023/10/21 13:09:29;;;;;;;;;;;;;;;9.43;100.00;99202.48;106191;1254;70887;-75